Raymond, Pennsylvania
Current Conditions -  °F | °C
As of 6:05 PM on Tuesday 27 Jan 2015 (Local Time) from KELZ Reporting Station
Broken Clouds Broken Clouds  
Wind Chill: -7°   Ceiling: 1400
Heat Index:   Visibility: 10mi
Dew Point:   Wind: 14mph
Humidity: 77%   Direction: 330°NNW
Pressure: 29.93"   Gusts: 21mph
Location:  41.915°N, 77.8855°W
Report Text: KELZ 272305Z AUTO 33012G18KT 10SM BKN014 M13/M16 A2993 RMK AO2 T11281161
Loading
Personal Weather Stations






























Interactive Weather Map New forecast layout! Learn more

10-Day Weather Forecast

Advertisements
Track Severe Weather on mobile